Terminal Aerodrome Forecast
Issued by NWS Melbourne, FL

Home | Current Version | Previous Version | Text Only | Print | Product List | Glossary On
Versions: 1 2 3 4 5 6 7 8 9 10 11 12 13 14
000
FTUS42 KMLB 301720
TAFDAB
TAF
KDAB 301720Z 3018/3118 08010KT P6SM SCT030 SCT040
     FM310100 09005KT P6SM SCT035 SCT060 BKN250
     FM310600 00000KT P6SM VCSH SCT030
     FM311400 10006KT P6SM VCSH FEW015 SCT025 BKN080=

USA.gov is the U.S. government's official web portal to all federal, state and local government web resources and services.